createdAt,value
2022-12-26T00:01:32.065Z,5.54
2022-12-26T00:06:38.111Z,5.76
2022-12-26T00:11:45.613Z,6.18
2022-12-26T00:16:50.219Z,5.96
2022-12-26T00:21:57.646Z,5.97
2022-12-26T00:27:02.505Z,6.11
2022-12-26T00:32:06.870Z,5.93
2022-12-26T00:37:12.833Z,6.35
2022-12-26T00:42:16.931Z,7.24
2022-12-26T00:47:21.368Z,6.65
2022-12-26T00:52:27.200Z,6.80
2022-12-26T00:57:31.359Z,6.91
2022-12-26T01:02:42.070Z,7.07
2022-12-26T01:08:21.185Z,6.38
2022-12-26T01:13:15.070Z,6.20
2022-12-26T01:18:21.371Z,5.65
2022-12-26T01:23:27.602Z,6.06
2022-12-26T01:28:32.127Z,6.01
2022-12-26T01:33:36.850Z,5.74
2022-12-26T01:38:42.792Z,6.02
2022-12-26T01:43:55.968Z,6.49
2022-12-26T01:49:07.917Z,5.80
2022-12-26T01:54:39.562Z,6.48
2022-12-26T01:59:42.151Z,7.02
2022-12-26T02:05:10.124Z,6.45
2022-12-26T02:10:19.519Z,6.79
2022-12-26T02:15:24.241Z,6.97
2022-12-26T02:20:32.842Z,6.44
2022-12-26T02:26:11.729Z,6.23
2022-12-26T02:31:25.552Z,6.06
2022-12-26T02:36:48.416Z,6.43
2022-12-26T02:42:05.912Z,6.93
2022-12-26T02:47:17.323Z,6.98
2022-12-26T02:52:48.727Z,7.15
2022-12-26T02:58:23.510Z,6.87
2022-12-26T03:03:49.997Z,7.02
2022-12-26T03:09:28.310Z,7.11
2022-12-26T03:14:40.037Z,6.80
2022-12-26T03:20:00.548Z,6.46
2022-12-26T03:25:26.521Z,6.74
2022-12-26T03:30:48.990Z,6.70
2022-12-26T03:35:55.815Z,6.75
2022-12-26T03:41:24.687Z,7.07
2022-12-26T03:47:05.384Z,6.71
2022-12-26T03:52:40.110Z,6.85
2022-12-26T03:58:11.663Z,6.78
2022-12-26T04:03:35.580Z,7.16
2022-12-26T04:09:06.479Z,6.67
2022-12-26T04:14:36.290Z,6.81
2022-12-26T04:20:00.382Z,7.01
2022-12-26T04:25:50.129Z,6.55
2022-12-26T04:31:17.649Z,6.96
2022-12-26T04:36:45.339Z,6.75
2022-12-26T04:42:11.253Z,7.13
2022-12-26T04:47:18.315Z,6.69
2022-12-26T04:52:23.489Z,6.86
2022-12-26T04:57:29.634Z,6.80
2022-12-26T05:02:51.785Z,6.93
2022-12-26T05:08:13.744Z,7.09
2022-12-26T05:13:19.689Z,6.64
2022-12-26T05:18:40.811Z,7.07
2022-12-26T05:24:01.764Z,7.44
2022-12-26T05:29:08.607Z,7.37
2022-12-26T05:34:17.361Z,7.10
2022-12-26T05:39:21.767Z,7.39
2022-12-26T05:44:27.540Z,7.00
2022-12-26T05:49:31.651Z,7.01
2022-12-26T05:54:36.220Z,7.13
2022-12-26T05:59:42.925Z,6.93
2022-12-26T06:04:47.376Z,6.71
2022-12-26T06:09:51.756Z,6.65
2022-12-26T06:14:57.522Z,7.07
2022-12-26T06:20:01.837Z,6.86
2022-12-26T06:25:07.140Z,6.68
2022-12-26T06:30:14.866Z,6.83
2022-12-26T06:35:19.101Z,7.77
2022-12-26T06:40:23.399Z,7.83
2022-12-26T06:45:29.156Z,7.83
2022-12-26T06:50:33.430Z,7.42
2022-12-26T06:55:44.370Z,7.80
2022-12-26T07:00:50.567Z,7.70
2022-12-26T07:05:55.000Z,7.91
2022-12-26T07:10:59.493Z,8.01
2022-12-26T07:16:05.970Z,8.28
2022-12-26T07:21:13.812Z,8.25
2022-12-26T07:26:18.839Z,8.06
2022-12-26T07:31:30.410Z,8.79
2022-12-26T07:36:35.456Z,8.53
2022-12-26T07:41:57.417Z,8.54
2022-12-26T07:47:03.473Z,8.71
2022-12-26T07:52:09.576Z,8.74
2022-12-26T07:57:46.857Z,8.54
2022-12-26T08:02:41.938Z,8.41
2022-12-26T08:07:48.361Z,8.26
2022-12-26T08:12:52.789Z,8.85
2022-12-26T08:17:59.451Z,9.15
2022-12-26T08:23:03.879Z,9.55
2022-12-26T08:28:28.988Z,9.81
2022-12-26T08:33:36.008Z,9.81
2022-12-26T08:38:41.554Z,10.17
2022-12-26T08:44:27.335Z,10.16
2022-12-26T08:49:34.057Z,9.80
2022-12-26T08:54:38.691Z,10.53
2022-12-26T09:07:27.183Z,9.45
2022-12-26T09:12:32.178Z,9.37
2022-12-26T09:17:37.019Z,9.79
2022-12-26T09:22:52.983Z,10.48
2022-12-26T09:28:03.059Z,10.21
2022-12-26T09:33:08.611Z,10.88
2022-12-26T09:38:20.432Z,9.78
2022-12-26T09:43:34.814Z,9.41
2022-12-26T09:48:48.226Z,9.52
2022-12-26T09:53:57.178Z,10.03
2022-12-26T09:59:09.063Z,8.59
2022-12-26T10:04:29.698Z,8.43
2022-12-26T10:09:57.837Z,8.39
2022-12-26T10:15:12.956Z,8.63
2022-12-26T10:20:27.291Z,8.68
2022-12-26T10:25:42.756Z,8.48
2022-12-26T10:30:50.205Z,8.83
2022-12-26T10:35:55.047Z,8.42
2022-12-26T10:41:07.109Z,8.39
2022-12-26T10:46:36.444Z,8.01
2022-12-26T10:51:41.942Z,8.13
2022-12-26T10:56:50.744Z,8.14
2022-12-26T11:01:55.402Z,8.23
2022-12-26T11:07:00.135Z,7.99
2022-12-26T11:12:07.747Z,8.22
2022-12-26T11:17:18.564Z,7.94
2022-12-26T11:22:26.819Z,8.51
2022-12-26T11:27:34.127Z,8.59
2022-12-26T11:32:38.765Z,8.24
2022-12-26T11:37:45.980Z,8.03
2022-12-26T11:42:56.367Z,8.28
2022-12-26T11:48:02.555Z,8.66
2022-12-26T11:53:12.455Z,8.23
2022-12-26T11:58:21.762Z,8.52
2022-12-26T12:03:32.631Z,8.67
2022-12-26T12:08:46.489Z,8.13
2022-12-26T12:14:07.746Z,8.34
2022-12-26T12:19:30.561Z,8.43
2022-12-26T12:24:50.755Z,8.19
2022-12-26T12:30:14.328Z,8.00
2022-12-26T12:35:35.910Z,8.47
2022-12-26T12:40:50.833Z,8.25
2022-12-26T12:46:11.520Z,8.57
2022-12-26T12:51:26.661Z,9.02
2022-12-26T12:56:46.499Z,8.86
2022-12-26T13:01:57.463Z,8.96
2022-12-26T13:07:08.977Z,8.29
2022-12-26T13:12:17.798Z,8.36
2022-12-26T13:17:27.713Z,8.51
2022-12-26T13:22:50.868Z,8.07
2022-12-26T13:28:09.774Z,8.19
2022-12-26T13:33:17.273Z,8.51
2022-12-26T13:38:23.169Z,8.68
2022-12-26T13:43:45.133Z,8.73
2022-12-26T13:49:28.349Z,8.76
2022-12-26T13:54:33.399Z,9.11
2022-12-26T13:59:48.373Z,8.93
2022-12-26T14:05:07.248Z,8.21
2022-12-26T14:10:20.625Z,7.97
2022-12-26T14:15:49.350Z,7.16
2022-12-26T14:21:14.454Z,7.46
2022-12-26T14:26:32.231Z,7.30
2022-12-26T14:31:48.015Z,7.02
2022-12-26T14:37:02.025Z,7.46
2022-12-26T14:42:39.364Z,7.19
2022-12-26T14:47:46.299Z,7.76
2022-12-26T14:52:52.398Z,7.32
2022-12-26T14:57:57.531Z,7.26
2022-12-26T15:03:43.584Z,7.48
2022-12-26T15:09:09.856Z,7.56
2022-12-26T15:14:47.263Z,7.56
2022-12-26T15:20:35.458Z,7.37
2022-12-26T15:26:10.144Z,7.37
2022-12-26T15:31:43.636Z,7.42
2022-12-26T15:36:56.627Z,7.57
2022-12-26T15:42:20.891Z,7.69
2022-12-26T15:47:34.520Z,7.87
2022-12-26T15:52:52.663Z,7.51
2022-12-26T15:58:03.788Z,7.26
2022-12-26T16:03:22.607Z,7.59
2022-12-26T16:08:50.900Z,7.86
2022-12-26T16:14:00.933Z,7.74
2022-12-26T16:19:20.770Z,7.35
2022-12-26T16:24:25.261Z,7.46
2022-12-26T16:29:32.814Z,7.22
2022-12-26T16:34:38.391Z,7.42
2022-12-26T16:39:42.824Z,7.93
2022-12-26T16:44:48.857Z,7.84
2022-12-26T16:49:53.449Z,7.42
2022-12-26T16:54:58.087Z,7.45
2022-12-26T17:00:06.252Z,7.38
2022-12-26T17:05:22.159Z,7.31
2022-12-26T17:10:28.633Z,7.29
2022-12-26T17:15:37.888Z,6.92
2022-12-26T17:20:42.360Z,7.08
2022-12-26T17:25:50.775Z,7.06
2022-12-26T17:30:56.862Z,6.87
2022-12-26T17:41:28.735Z,7.06
2022-12-26T17:46:34.885Z,7.14
2022-12-26T17:51:39.663Z,7.28
2022-12-26T17:56:44.100Z,7.45
2022-12-26T18:01:50.463Z,7.72
2022-12-26T18:06:55.310Z,7.51
2022-12-26T18:11:59.797Z,7.86
2022-12-26T18:17:05.730Z,7.81
2022-12-26T18:22:15.104Z,8.11
2022-12-26T18:27:21.896Z,7.41
2022-12-26T18:32:31.073Z,7.75
2022-12-26T18:37:35.567Z,7.36
2022-12-26T18:42:39.905Z,7.00
2022-12-26T18:47:45.689Z,7.08
2022-12-26T18:52:53.789Z,6.75
2022-12-26T18:57:58.819Z,7.34
2022-12-26T19:03:05.072Z,7.24
2022-12-26T19:08:11.763Z,6.64
2022-12-26T19:13:16.391Z,6.67
2022-12-26T19:18:22.145Z,6.62
2022-12-26T19:23:26.165Z,6.62
2022-12-26T19:28:30.715Z,6.37
2022-12-26T19:33:36.593Z,6.54
2022-12-26T19:38:41.036Z,7.00
2022-12-26T19:43:45.366Z,6.42
2022-12-26T19:48:51.306Z,6.66
2022-12-26T19:53:55.670Z,6.91
2022-12-26T19:59:00.542Z,6.72
2022-12-26T20:04:07.093Z,7.01
2022-12-26T20:09:14.089Z,7.21
2022-12-26T20:14:19.943Z,6.52
2022-12-26T20:19:26.100Z,6.71
2022-12-26T20:24:30.624Z,6.24
2022-12-26T20:29:35.328Z,6.89
2022-12-26T20:34:41.199Z,6.88
2022-12-26T20:39:45.178Z,6.50
2022-12-26T20:44:49.608Z,6.73
2022-12-26T20:49:55.460Z,7.05
2022-12-26T20:54:59.563Z,7.11
2022-12-26T21:00:04.079Z,7.51
2022-12-26T21:05:10.819Z,7.55
2022-12-26T21:10:15.316Z,7.08
2022-12-26T21:15:19.973Z,6.93
2022-12-26T21:20:25.776Z,7.17
2022-12-26T21:25:29.902Z,6.77
2022-12-26T21:30:34.382Z,6.68
2022-12-26T21:35:40.297Z,6.94
2022-12-26T21:40:45.313Z,7.14
2022-12-26T21:45:57.639Z,7.01
2022-12-26T21:51:09.562Z,7.36
2022-12-26T21:56:15.875Z,6.63
2022-12-26T22:01:20.396Z,7.23
2022-12-26T22:06:26.427Z,6.73
2022-12-26T22:11:48.465Z,7.13
2022-12-26T22:16:53.599Z,6.98
2022-12-26T22:21:59.648Z,6.92
2022-12-26T22:27:04.080Z,7.29
2022-12-26T22:32:08.796Z,7.34
2022-12-26T22:37:15.002Z,7.31
2022-12-26T22:42:19.334Z,6.88
2022-12-26T22:47:23.913Z,6.69
2022-12-26T22:52:29.981Z,7.41
2022-12-26T22:57:35.663Z,7.28
2022-12-26T23:02:40.279Z,7.58
2022-12-26T23:07:47.084Z,7.00
2022-12-26T23:12:52.241Z,7.62
2022-12-26T23:18:21.028Z,7.90
2022-12-26T23:23:28.121Z,7.50
2022-12-26T23:28:49.683Z,7.58
2022-12-26T23:33:54.094Z,7.46
2022-12-26T23:39:00.113Z,8.01
2022-12-26T23:44:05.750Z,7.88
2022-12-26T23:49:10.179Z,7.63
2022-12-26T23:54:16.024Z,8.18
2022-12-26T23:59:20.241Z,7.77
